createdAt,value
2022-11-25T00:01:45.693Z,100913.03
2022-11-25T00:06:48.660Z,100914.00
2022-11-25T00:11:53.093Z,100908.84
2022-11-25T00:16:56.139Z,100908.78
2022-11-25T00:21:59.160Z,100899.13
2022-11-25T00:27:05.010Z,100896.50
2022-11-25T00:32:10.782Z,100887.88
2022-11-25T00:37:13.810Z,100884.50
2022-11-25T00:42:35.921Z,100883.69
2022-11-25T00:47:38.932Z,100890.72
2022-11-25T00:52:41.986Z,100884.75
2022-11-25T00:57:46.246Z,100890.72
2022-11-25T01:02:49.555Z,100892.50
2022-11-25T01:07:52.568Z,100900.34
2022-11-25T01:12:57.804Z,100906.44
2022-11-25T01:18:00.732Z,100909.06
2022-11-25T01:23:03.668Z,100909.94
2022-11-25T01:28:08.135Z,100920.34
2022-11-25T01:33:11.072Z,100927.44
2022-11-25T01:38:14.068Z,100943.16
2022-11-25T01:43:18.514Z,100949.31
2022-11-25T01:48:27.346Z,100945.72
2022-11-25T01:53:30.454Z,100940.50
2022-11-25T01:58:38.417Z,100954.53
2022-11-25T02:03:44.510Z,100935.25
2022-11-25T02:08:52.453Z,100917.88
2022-11-25T02:13:57.965Z,100918.69
2022-11-25T02:19:03.705Z,100920.66
2022-11-25T02:24:13.693Z,100913.75
2022-11-25T02:29:22.286Z,100926.91
2022-11-25T02:34:25.364Z,100945.34
2022-11-25T02:39:29.856Z,100968.91
2022-11-25T02:44:35.138Z,100963.53
2022-11-25T02:49:38.374Z,100945.88
2022-11-25T02:54:41.906Z,100922.22
2022-11-25T02:59:46.376Z,100915.16
2022-11-25T03:04:50.348Z,100946.53
2022-11-25T03:09:55.709Z,100933.97
2022-11-25T03:15:00.198Z,100958.38
2022-11-25T03:20:05.160Z,100952.06
2022-11-25T03:25:09.175Z,100969.38
2022-11-25T03:30:16.564Z,100980.84
2022-11-25T03:35:21.727Z,100978.22
2022-11-25T03:40:25.103Z,100973.81
2022-11-25T03:45:29.777Z,100981.47
2022-11-25T03:50:35.564Z,100991.94
2022-11-25T03:55:38.683Z,100992.53
2022-11-25T04:00:43.243Z,101007.41
2022-11-25T04:05:46.256Z,101021.09
2022-11-25T04:10:52.541Z,101028.94
2022-11-25T04:16:01.141Z,101024.75
2022-11-25T04:21:04.367Z,101031.34
2022-11-25T04:26:07.769Z,101038.84
2022-11-25T04:31:16.663Z,101033.91
2022-11-25T04:36:20.619Z,101043.09
2022-11-25T04:41:26.920Z,101045.38
2022-11-25T04:46:38.176Z,101051.06
2022-11-25T04:51:41.481Z,101069.25
2022-11-25T04:56:44.513Z,101079.50
2022-11-25T05:01:49.127Z,101086.13
2022-11-25T05:07:14.850Z,101085.66
2022-11-25T05:12:22.940Z,101091.88
2022-11-25T05:17:29.863Z,101091.13
2022-11-25T05:22:35.330Z,101096.44
2022-11-25T05:27:40.069Z,101102.72
2022-11-25T05:32:47.566Z,101103.63
2022-11-25T05:37:51.186Z,101105.44
2022-11-25T05:42:54.409Z,101106.34
2022-11-25T05:47:59.411Z,101111.56
2022-11-25T05:53:04.536Z,101112.16
2022-11-25T05:58:09.227Z,101122.44
2022-11-25T06:03:13.786Z,101126.38
2022-11-25T06:08:18.260Z,101140.03
2022-11-25T06:13:22.082Z,101146.78
2022-11-25T06:18:29.277Z,101150.78
2022-11-25T06:23:33.054Z,101143.50
2022-11-25T06:28:37.368Z,101145.88
2022-11-25T06:33:42.347Z,101164.72
2022-11-25T06:38:47.356Z,101168.81
2022-11-25T06:43:50.505Z,101168.63
2022-11-25T06:48:55.948Z,101182.34
2022-11-25T06:53:58.919Z,101184.69
2022-11-25T06:59:02.680Z,101198.38
2022-11-25T07:04:07.349Z,101211.19
2022-11-25T07:09:10.304Z,101211.81
2022-11-25T07:14:15.361Z,101219.41
2022-11-25T07:19:20.605Z,101233.19
2022-11-25T07:24:25.635Z,101235.56
2022-11-25T07:29:54.195Z,101247.59
2022-11-25T07:34:55.353Z,101240.50
2022-11-25T07:39:58.396Z,101256.16
2022-11-25T07:45:01.575Z,101269.88
2022-11-25T07:50:18.298Z,101278.56
2022-11-25T07:55:21.559Z,101295.16
2022-11-25T08:00:27.149Z,101293.56
2022-11-25T08:05:33.623Z,101300.56
2022-11-25T08:10:36.642Z,101309.28
2022-11-25T08:15:39.742Z,101310.47
2022-11-25T08:20:44.428Z,101324.63
2022-11-25T08:25:50.438Z,101321.34
2022-11-25T08:30:56.526Z,101329.47
2022-11-25T08:36:01.345Z,101334.06
2022-11-25T08:41:05.076Z,101337.75
2022-11-25T08:46:12.971Z,101342.25
2022-11-25T08:51:20.906Z,101352.97
2022-11-25T08:56:26.554Z,101361.69
2022-11-25T09:01:30.196Z,101366.22
2022-11-25T09:06:34.895Z,101372.22
2022-11-25T09:11:38.070Z,101385.19
2022-11-25T09:16:41.453Z,101390.13
2022-11-25T09:21:45.903Z,101390.31
2022-11-25T09:26:49.468Z,101397.19
2022-11-25T09:31:55.031Z,101416.44
2022-11-25T09:36:59.732Z,101425.94
2022-11-25T09:42:36.724Z,101440.75
2022-11-25T09:47:52.863Z,101438.09
2022-11-25T09:53:12.678Z,101448.63
2022-11-25T09:58:25.146Z,101456.22
2022-11-25T10:03:36.126Z,101459.69
2022-11-25T10:08:44.370Z,101472.59
2022-11-25T10:13:57.592Z,101487.00
2022-11-25T10:19:03.838Z,101477.81
2022-11-25T10:24:14.602Z,101498.53
2022-11-25T10:29:25.774Z,101493.88
2022-11-25T10:34:37.508Z,101487.41
2022-11-25T10:39:42.233Z,101485.16
2022-11-25T10:44:45.581Z,101492.41
2022-11-25T10:50:01.057Z,101507.72
2022-11-25T10:55:12.947Z,101512.91
2022-11-25T11:00:30.441Z,101520.19
2022-11-25T11:05:33.838Z,101532.03
2022-11-25T11:10:38.350Z,101535.91
2022-11-25T11:15:47.530Z,101546.66
2022-11-25T11:20:53.286Z,101548.84
2022-11-25T11:26:01.494Z,101560.66
2022-11-25T11:31:08.195Z,101570.63
2022-11-25T11:36:32.196Z,101571.94
2022-11-25T11:41:43.794Z,101580.59
2022-11-25T11:47:08.359Z,101587.03
2022-11-25T11:52:22.133Z,101600.06
2022-11-25T11:57:46.120Z,101609.00
2022-11-25T12:02:58.010Z,101604.81
2022-11-25T12:08:08.055Z,101618.66
2022-11-25T12:13:22.003Z,101620.56
2022-11-25T12:18:40.154Z,101625.25
2022-11-25T12:23:51.436Z,101631.72
2022-11-25T12:29:00.877Z,101636.44
2022-11-25T12:34:10.599Z,101640.69
2022-11-25T12:39:23.100Z,101630.56
2022-11-25T12:44:32.516Z,101648.19
2022-11-25T12:49:43.172Z,101660.28
2022-11-25T12:55:10.044Z,101669.44
2022-11-25T13:06:11.013Z,101678.06
2022-11-25T13:11:41.244Z,101689.69
2022-11-25T13:16:48.380Z,101688.84
2022-11-25T13:21:59.914Z,101687.09
2022-11-25T13:27:05.297Z,101694.97
2022-11-25T13:32:31.723Z,101701.25
2022-11-25T13:37:40.125Z,101706.59
2022-11-25T13:42:45.963Z,101711.69
2022-11-25T13:47:50.784Z,101731.59
2022-11-25T13:53:01.137Z,101735.66
2022-11-25T13:58:19.509Z,101737.88
2022-11-25T14:03:51.517Z,101744.97
2022-11-25T14:08:58.811Z,101753.41
2022-11-25T14:14:20.770Z,101764.16
2022-11-25T14:19:52.054Z,101769.91
2022-11-25T14:25:02.046Z,101772.22
2022-11-25T14:30:07.352Z,101788.91
2022-11-25T14:35:17.216Z,101802.97
2022-11-25T14:40:26.886Z,101802.97
2022-11-25T14:45:33.489Z,101812.88
2022-11-25T14:50:39.396Z,101811.34
2022-11-25T14:55:42.941Z,101809.72
2022-11-25T15:00:55.697Z,101825.72
2022-11-25T15:06:05.366Z,101827.63
2022-11-25T15:11:14.810Z,101842.47
2022-11-25T15:16:20.771Z,101860.25
2022-11-25T15:21:30.407Z,101872.19
2022-11-25T15:26:35.320Z,101880.25
2022-11-25T15:31:39.359Z,101884.38
2022-11-25T15:36:43.887Z,101900.25
2022-11-25T15:41:49.342Z,101902.13
2022-11-25T15:46:57.259Z,101910.00
2022-11-25T15:52:08.661Z,101926.88
2022-11-25T15:57:20.733Z,101947.81
2022-11-25T16:02:33.376Z,101957.38
2022-11-25T16:07:41.115Z,101963.69
2022-11-25T16:12:44.208Z,101977.78
2022-11-25T16:17:47.386Z,101984.16
2022-11-25T16:22:51.810Z,101984.34
2022-11-25T16:27:54.986Z,101988.81
2022-11-25T16:32:58.177Z,102012.78
2022-11-25T16:38:02.820Z,102023.47
2022-11-25T16:43:08.217Z,102034.13
2022-11-25T16:48:17.098Z,102055.31
2022-11-25T16:53:21.533Z,102063.31
2022-11-25T16:58:26.452Z,102070.59
2022-11-25T17:03:29.746Z,102074.56
2022-11-25T17:08:34.214Z,102087.91
2022-11-25T17:13:41.286Z,102106.56
2022-11-25T17:18:44.775Z,102102.34
2022-11-25T17:23:53.822Z,102114.16
2022-11-25T17:29:01.108Z,102126.00
2022-11-25T17:34:04.112Z,102140.31
2022-11-25T17:39:10.191Z,102152.00
2022-11-25T17:44:24.208Z,102151.72
2022-11-25T17:49:27.488Z,102155.25
2022-11-25T17:54:31.819Z,102161.06
2022-11-25T17:59:36.561Z,102155.22
2022-11-25T18:04:39.800Z,102176.88
2022-11-25T18:09:45.415Z,102183.72
2022-11-25T18:14:48.611Z,102200.13
2022-11-25T18:19:55.306Z,102193.91
2022-11-25T18:25:02.227Z,102200.50
2022-11-25T18:30:19.667Z,102219.31
2022-11-25T18:35:27.046Z,102223.03
2022-11-25T18:40:36.268Z,102232.94
2022-11-25T18:45:40.447Z,102239.47
2022-11-25T18:50:44.155Z,102239.72
2022-11-25T18:55:49.906Z,102250.75
2022-11-25T19:00:55.403Z,102248.53
2022-11-25T19:06:01.030Z,102262.06
2022-11-25T19:11:05.705Z,102278.94
2022-11-25T19:16:13.948Z,102282.09
2022-11-25T19:21:18.656Z,102273.81
2022-11-25T19:26:30.108Z,102287.47
2022-11-25T19:31:34.663Z,102299.31
2022-11-25T19:36:37.851Z,102304.88
2022-11-25T19:41:42.333Z,102322.84
2022-11-25T19:47:14.271Z,102324.97
2022-11-25T19:52:16.985Z,102331.69
2022-11-25T19:57:25.913Z,102340.09
2022-11-25T20:02:30.262Z,102341.47
2022-11-25T20:07:33.574Z,102340.31
2022-11-25T20:12:38.163Z,102347.13
2022-11-25T20:17:43.433Z,102353.59
2022-11-25T20:22:55.569Z,102359.34
2022-11-25T20:28:02.890Z,102368.56
2022-11-25T20:33:09.014Z,102373.53
2022-11-25T20:38:17.020Z,102378.53
2022-11-25T20:43:32.188Z,102383.53
2022-11-25T20:48:38.150Z,102391.13
2022-11-25T20:53:46.110Z,102400.28
2022-11-25T20:58:50.845Z,102403.34
2022-11-25T21:03:56.518Z,102412.66
2022-11-25T21:09:02.424Z,102424.44
2022-11-25T21:14:18.815Z,102432.69
2022-11-25T21:19:22.164Z,102446.38
2022-11-25T21:24:31.676Z,102460.00
2022-11-25T21:29:36.569Z,102459.66
2022-11-25T21:34:39.961Z,102473.13
2022-11-25T21:39:43.695Z,102480.81
2022-11-25T21:44:49.963Z,102470.88
2022-11-25T21:49:54.832Z,102487.97
2022-11-25T21:54:58.022Z,102488.25
2022-11-25T22:00:03.993Z,102498.59
2022-11-25T22:05:15.630Z,102507.19
2022-11-25T22:10:19.216Z,102520.13
2022-11-25T22:15:26.336Z,102515.56
2022-11-25T22:20:30.687Z,102507.34
2022-11-25T22:25:34.320Z,102507.09
2022-11-25T22:30:38.541Z,102514.69
2022-11-25T22:35:41.635Z,102528.25
2022-11-25T22:40:45.933Z,102525.38
2022-11-25T22:45:50.966Z,102538.16
2022-11-25T22:50:54.096Z,102545.97
2022-11-25T22:55:58.499Z,102552.78
2022-11-25T23:01:02.983Z,102553.44
2022-11-25T23:06:08.933Z,102552.25
2022-11-25T23:11:17.338Z,102566.22
2022-11-25T23:16:21.743Z,102568.44
2022-11-25T23:21:29.182Z,102578.47
2022-11-25T23:26:34.987Z,102579.88
2022-11-25T23:31:41.135Z,102592.94
2022-11-25T23:36:46.518Z,102597.91
2022-11-25T23:41:49.943Z,102597.50
2022-11-25T23:46:57.774Z,102608.72
2022-11-25T23:52:07.742Z,102600.75
2022-11-25T23:57:15.636Z,102613.66
